createdAt,value
2019-03-10T00:00:36.175Z,68.32
2019-03-10T00:03:06.402Z,68.49
2019-03-10T00:05:36.366Z,68.79
2019-03-10T00:08:08.048Z,68.96
2019-03-10T00:10:37.799Z,69.29
2019-03-10T00:13:07.706Z,69.33
2019-03-10T00:15:37.590Z,69.62
2019-03-10T00:18:07.369Z,69.93
2019-03-10T00:20:37.014Z,70.13
2019-03-10T00:23:07.206Z,70.34
2019-03-10T00:25:36.956Z,70.35
2019-03-10T00:28:06.819Z,70.51
2019-03-10T00:30:36.810Z,70.77
2019-03-10T00:33:06.635Z,70.97
2019-03-10T00:35:36.491Z,71.09
2019-03-10T00:38:06.345Z,71.24
2019-03-10T00:41:00.026Z,71.23
2019-03-10T00:43:57.131Z,71.25
2019-03-10T00:47:21.377Z,71.16
2019-03-10T00:50:11.017Z,71.14
2019-03-10T00:52:45.741Z,71.35
2019-03-10T00:55:15.751Z,71.60
2019-03-10T00:57:45.493Z,71.70
2019-03-10T01:00:18.630Z,71.65
2019-03-10T01:02:48.493Z,71.78
2019-03-10T01:05:19.019Z,71.92
2019-03-10T01:07:48.996Z,72.00
2019-03-10T01:10:18.776Z,72.11
2019-03-10T01:12:49.147Z,72.51
2019-03-10T01:15:19.172Z,72.77
2019-03-10T01:17:51.546Z,72.92
2019-03-10T01:20:21.442Z,73.11
2019-03-10T01:22:51.212Z,73.35
2019-03-10T01:25:20.924Z,73.62
2019-03-10T01:27:50.690Z,73.77
2019-03-10T01:30:22.027Z,73.80
2019-03-10T01:33:20.325Z,74.07
2019-03-10T01:35:50.195Z,74.38
2019-03-10T01:38:20.080Z,74.51
2019-03-10T01:40:49.823Z,74.65
2019-03-10T01:43:19.529Z,74.53
2019-03-10T01:45:49.274Z,74.87
2019-03-10T01:48:19.121Z,74.88
2019-03-10T01:50:48.765Z,74.98
2019-03-10T01:53:25.653Z,75.10
2019-03-10T01:55:50.059Z,75.38
2019-03-10T01:58:19.775Z,75.44
2019-03-10T02:00:49.478Z,75.54
2019-03-10T02:03:19.184Z,75.68
2019-03-10T02:05:48.897Z,75.77
2019-03-10T02:08:18.620Z,75.98
2019-03-10T02:10:48.273Z,75.53
2019-03-10T02:13:17.967Z,75.66
2019-03-10T02:15:47.658Z,75.70
2019-03-10T02:18:17.366Z,75.72
2019-03-10T02:20:47.072Z,75.87
2019-03-10T02:23:16.774Z,75.83
2019-03-10T02:25:46.451Z,76.04
2019-03-10T02:28:16.140Z,76.25
2019-03-10T02:30:45.955Z,76.51
2019-03-10T02:33:15.633Z,76.77
2019-03-10T02:35:45.405Z,77.03
2019-03-10T02:38:15.114Z,77.23
2019-03-10T02:40:44.822Z,77.66
2019-03-10T02:43:14.584Z,77.71
2019-03-10T02:45:44.374Z,77.79
2019-03-10T02:48:14.138Z,77.93
2019-03-10T02:50:43.867Z,77.67
2019-03-10T02:53:13.577Z,77.63
2019-03-10T02:55:43.239Z,78.04
2019-03-10T02:58:13.017Z,78.21
2019-03-10T03:00:42.735Z,78.26
2019-03-10T03:03:12.495Z,78.25
2019-03-10T03:05:42.210Z,78.34
2019-03-10T03:08:11.990Z,78.56
2019-03-10T03:10:41.782Z,78.45
2019-03-10T03:13:11.472Z,78.65
2019-03-10T03:15:41.179Z,78.75
2019-03-10T03:18:10.889Z,79.05
2019-03-10T03:20:40.690Z,79.36
2019-03-10T03:23:10.333Z,79.79
2019-03-10T03:25:40.125Z,80.02
2019-03-10T03:28:09.861Z,80.23
2019-03-10T03:30:39.928Z,80.49
2019-03-10T03:33:09.687Z,80.52
2019-03-10T03:35:46.689Z,80.66
2019-03-10T03:38:20.379Z,80.64
2019-03-10T03:41:00.303Z,80.39
2019-03-10T03:43:30.078Z,80.29
2019-03-10T03:45:59.821Z,80.10
2019-03-10T03:48:29.836Z,79.67
2019-03-10T03:50:59.528Z,79.17
2019-03-10T03:53:29.287Z,79.47
2019-03-10T03:55:59.026Z,79.59
2019-03-10T03:58:28.699Z,79.79
2019-03-10T04:01:00.049Z,79.71
2019-03-10T04:03:29.758Z,79.65
2019-03-10T04:05:59.408Z,79.54
2019-03-10T04:08:29.172Z,79.57
2019-03-10T04:10:58.840Z,79.13
2019-03-10T04:13:28.554Z,79.49
2019-03-10T04:15:58.190Z,79.83
2019-03-10T04:18:27.921Z,80.26
2019-03-10T04:20:57.687Z,80.22
2019-03-10T04:23:27.396Z,80.70
2019-03-10T04:25:57.163Z,80.98
2019-03-10T04:28:26.814Z,80.86
2019-03-10T04:30:56.513Z,81.28
2019-03-10T04:33:26.227Z,81.67
2019-03-10T04:35:55.922Z,82.16
2019-03-10T04:38:25.661Z,82.13
2019-03-10T04:40:55.417Z,82.30
2019-03-10T04:43:25.799Z,82.06
2019-03-10T04:45:55.601Z,81.83
2019-03-10T04:48:25.232Z,81.93
2019-03-10T04:50:54.995Z,82.05
2019-03-10T04:53:24.672Z,82.30
2019-03-10T04:55:56.020Z,82.60
2019-03-10T04:58:26.357Z,83.06
2019-03-10T05:00:57.761Z,83.19
2019-03-10T05:03:28.795Z,83.43
2019-03-10T05:05:58.479Z,83.58
2019-03-10T05:08:28.147Z,83.65
2019-03-10T05:10:57.857Z,83.69
2019-03-10T05:13:27.524Z,83.75
2019-03-10T05:15:57.627Z,83.85
2019-03-10T05:18:27.322Z,84.21
2019-03-10T05:20:56.991Z,84.29
2019-03-10T05:23:32.562Z,84.29
2019-03-10T05:26:02.547Z,84.53
2019-03-10T05:28:35.326Z,84.72
2019-03-10T05:31:05.070Z,84.74
2019-03-10T05:33:34.821Z,84.67
2019-03-10T05:36:04.730Z,84.70
2019-03-10T05:38:34.446Z,84.65
2019-03-10T05:41:04.226Z,84.78
2019-03-10T05:43:33.928Z,84.94
2019-03-10T05:46:03.822Z,85.08
2019-03-10T05:48:33.625Z,85.39
2019-03-10T05:51:03.432Z,85.47
2019-03-10T05:53:33.127Z,85.54
2019-03-10T05:56:02.872Z,85.40
2019-03-10T05:58:32.594Z,85.22
2019-03-10T06:01:02.361Z,85.35
2019-03-10T06:03:32.140Z,85.48
2019-03-10T06:06:01.846Z,85.49
2019-03-10T06:08:32.644Z,85.55
2019-03-10T06:11:02.331Z,85.54
2019-03-10T06:13:31.987Z,85.50
2019-03-10T06:16:01.719Z,85.46
2019-03-10T06:18:31.396Z,85.48
2019-03-10T06:21:01.159Z,85.46
2019-03-10T06:23:30.835Z,85.56
2019-03-10T06:26:00.567Z,85.63
2019-03-10T06:28:30.309Z,85.40
2019-03-10T06:31:00.037Z,85.38
2019-03-10T06:33:29.738Z,85.20
2019-03-10T06:35:59.408Z,84.87
2019-03-10T06:38:29.176Z,84.76
2019-03-10T06:40:58.825Z,84.07
2019-03-10T06:43:28.707Z,83.77
2019-03-10T06:45:58.345Z,83.71
2019-03-10T06:48:28.040Z,83.91
2019-03-10T06:50:57.686Z,84.23
2019-03-10T06:53:27.516Z,84.21
2019-03-10T06:55:57.157Z,84.10
2019-03-10T06:58:26.799Z,83.95
2019-03-10T07:00:56.527Z,84.13
2019-03-10T07:03:26.263Z,84.31
2019-03-10T07:05:55.951Z,83.94
2019-03-10T07:08:25.612Z,84.02
2019-03-10T07:10:55.319Z,84.24
2019-03-10T07:13:25.033Z,84.69
2019-03-10T07:15:54.737Z,84.94
2019-03-10T07:18:24.395Z,84.22
2019-03-10T07:20:54.244Z,84.47
2019-03-10T07:23:23.965Z,84.68
2019-03-10T07:26:05.922Z,84.17
2019-03-10T07:28:38.315Z,84.32
2019-03-10T07:31:12.410Z,84.19
2019-03-10T07:34:00.438Z,83.99
2019-03-10T07:36:32.025Z,83.40
2019-03-10T07:39:13.929Z,82.98
2019-03-10T07:41:51.432Z,82.97
2019-03-10T07:44:34.758Z,83.04
2019-03-10T07:47:06.164Z,83.57
2019-03-10T07:49:37.467Z,83.69
2019-03-10T07:52:20.985Z,83.76
2019-03-10T07:54:53.182Z,83.53
2019-03-10T07:57:27.580Z,82.67
2019-03-10T07:59:58.876Z,82.55
2019-03-10T08:02:39.391Z,83.12
2019-03-10T08:05:25.789Z,83.92
2019-03-10T08:08:13.307Z,84.09
2019-03-10T08:10:42.865Z,84.22
2019-03-10T08:13:15.570Z,83.67
2019-03-10T08:16:01.831Z,83.59
2019-03-10T08:18:35.656Z,84.06
2019-03-10T08:21:23.550Z,83.64
2019-03-10T08:24:02.049Z,83.63
2019-03-10T08:26:36.556Z,84.08
2019-03-10T08:29:08.950Z,84.05
2019-03-10T08:31:38.437Z,84.36
2019-03-10T08:34:11.021Z,84.37
2019-03-10T08:36:44.785Z,84.57
2019-03-10T08:39:20.328Z,84.06
2019-03-10T08:41:58.737Z,83.61
2019-03-10T08:44:46.231Z,83.37
2019-03-10T08:47:21.387Z,83.36
2019-03-10T08:50:09.434Z,83.19
2019-03-10T08:52:46.301Z,83.32
2019-03-10T08:55:32.980Z,83.23
2019-03-10T08:58:04.267Z,83.16
2019-03-10T09:00:45.754Z,83.06
2019-03-10T09:03:17.019Z,83.55
2019-03-10T09:05:57.341Z,83.67
2019-03-10T09:08:32.733Z,83.92
2019-03-10T09:11:10.303Z,84.03
2019-03-10T09:13:57.404Z,84.20
2019-03-10T09:16:29.532Z,84.26
2019-03-10T09:19:01.786Z,84.32
2019-03-10T09:21:51.126Z,84.46
2019-03-10T09:24:20.536Z,84.55
2019-03-10T09:26:55.750Z,84.62
2019-03-10T09:29:36.903Z,84.82
2019-03-10T09:32:13.787Z,84.79
2019-03-10T09:34:55.167Z,84.37
2019-03-10T09:37:36.424Z,84.14
2019-03-10T09:40:12.614Z,83.84
2019-03-10T09:42:44.043Z,83.64
2019-03-10T09:45:27.387Z,83.35
2019-03-10T09:48:15.145Z,83.42
2019-03-10T09:50:46.415Z,83.45
2019-03-10T09:53:15.940Z,83.48
2019-03-10T09:55:49.880Z,83.34
2019-03-10T09:58:27.023Z,83.55
2019-03-10T10:01:02.517Z,84.14
2019-03-10T10:03:49.570Z,85.15
2019-03-10T10:06:27.875Z,86.41
2019-03-10T10:09:15.405Z,87.26
2019-03-10T10:11:49.882Z,87.82
2019-03-10T10:14:31.337Z,87.50
2019-03-10T10:17:05.397Z,87.17
2019-03-10T10:19:36.721Z,86.68
2019-03-10T10:22:11.078Z,86.32
2019-03-10T10:24:45.174Z,85.89
2019-03-10T10:27:28.797Z,85.42
2019-03-10T10:30:16.365Z,85.07
2019-03-10T10:32:53.466Z,85.31
2019-03-10T10:35:29.630Z,85.61
2019-03-10T10:37:59.225Z,85.19
2019-03-10T10:40:31.991Z,85.01
2019-03-10T10:43:06.224Z,83.52
2019-03-10T10:45:53.632Z,83.46
2019-03-10T10:48:25.023Z,81.45
2019-03-10T10:51:12.876Z,81.47
2019-03-10T10:53:44.226Z,80.67
2019-03-10T10:56:18.398Z,80.87
2019-03-10T10:59:07.595Z,80.13
2019-03-10T11:01:39.163Z,79.24
2019-03-10T11:04:13.398Z,78.57
2019-03-10T11:06:48.895Z,78.40
2019-03-10T11:09:20.309Z,75.19
2019-03-10T11:11:51.761Z,75.13
2019-03-10T11:14:29.129Z,74.11
2019-03-10T11:16:58.663Z,73.57
2019-03-10T11:19:30.044Z,73.25
2019-03-10T11:22:17.770Z,72.77
2019-03-10T11:24:51.559Z,72.96
2019-03-10T11:27:34.840Z,73.77
2019-03-10T11:30:08.810Z,76.49
2019-03-10T11:32:38.290Z,76.96
2019-03-10T11:35:27.347Z,77.83
2019-03-10T11:37:56.876Z,78.63
2019-03-10T11:40:44.396Z,79.16
2019-03-10T11:43:15.758Z,79.54
2019-03-10T11:45:56.125Z,80.27
2019-03-10T11:48:39.105Z,80.70
2019-03-10T11:51:13.368Z,81.15
2019-03-10T11:53:47.716Z,81.33
2019-03-10T11:56:28.167Z,82.15
2019-03-10T11:59:17.861Z,82.54
2019-03-10T12:01:51.982Z,82.26
2019-03-10T12:04:32.191Z,81.98
2019-03-10T12:07:19.737Z,81.25
2019-03-10T12:09:49.566Z,81.65
2019-03-10T12:12:19.450Z,80.95
2019-03-10T12:14:49.181Z,80.27
2019-03-10T12:17:18.840Z,80.59
2019-03-10T12:19:50.031Z,80.79
2019-03-10T12:22:19.749Z,80.20
2019-03-10T12:24:49.575Z,79.35
2019-03-10T12:27:19.276Z,79.68
2019-03-10T12:29:49.046Z,78.34
2019-03-10T12:32:18.746Z,78.07
2019-03-10T12:34:48.407Z,77.66
2019-03-10T12:37:18.265Z,76.84
2019-03-10T12:39:47.981Z,77.15
2019-03-10T12:42:17.653Z,77.19
2019-03-10T12:44:48.500Z,77.36
2019-03-10T12:47:18.234Z,77.54
2019-03-10T12:49:47.910Z,78.17
2019-03-10T12:52:17.665Z,79.72
2019-03-10T12:54:47.414Z,81.17
2019-03-10T12:57:17.094Z,81.67
2019-03-10T12:59:46.973Z,82.01
2019-03-10T13:02:16.759Z,82.84
2019-03-10T13:04:46.429Z,84.15
2019-03-10T13:07:16.243Z,85.32
2019-03-10T13:09:46.289Z,85.64
2019-03-10T13:12:15.948Z,85.90
2019-03-10T13:14:45.695Z,84.94
2019-03-10T13:17:15.419Z,83.89
2019-03-10T13:19:45.166Z,82.08
2019-03-10T13:22:14.814Z,81.70
2019-03-10T13:24:44.580Z,81.12
2019-03-10T13:27:14.269Z,80.72
2019-03-10T13:29:44.026Z,80.25
2019-03-10T13:32:13.674Z,80.05
2019-03-10T13:34:43.398Z,79.46
2019-03-10T13:37:13.243Z,77.24
2019-03-10T13:39:43.150Z,72.74
2019-03-10T13:42:13.252Z,72.68
2019-03-10T13:44:43.151Z,69.61
2019-03-10T13:47:12.934Z,65.12
2019-03-10T13:49:42.939Z,63.87
2019-03-10T13:52:12.674Z,62.89
2019-03-10T13:54:42.341Z,61.54
2019-03-10T13:57:12.111Z,62.05
2019-03-10T13:59:41.825Z,63.09
2019-03-10T14:02:11.634Z,63.62
2019-03-10T14:04:41.341Z,64.35
2019-03-10T14:07:11.147Z,64.35
2019-03-10T14:09:40.893Z,64.80
2019-03-10T14:12:10.688Z,65.73
2019-03-10T14:14:40.367Z,66.00
2019-03-10T14:17:10.038Z,66.79
2019-03-10T14:19:39.789Z,64.12
2019-03-10T14:22:09.522Z,63.49
2019-03-10T14:24:39.245Z,63.31
2019-03-10T14:27:09.058Z,63.43
2019-03-10T14:29:38.717Z,63.04
2019-03-10T14:32:08.503Z,63.36
2019-03-10T14:34:38.268Z,63.54
2019-03-10T14:37:08.202Z,63.65
2019-03-10T14:39:38.010Z,63.39
2019-03-10T14:42:07.763Z,63.71
2019-03-10T14:44:37.441Z,64.12
2019-03-10T14:47:07.255Z,63.84
2019-03-10T14:49:37.056Z,63.76
2019-03-10T14:52:06.889Z,64.10
2019-03-10T14:54:36.550Z,63.80
2019-03-10T14:57:06.375Z,64.20
2019-03-10T14:59:36.145Z,64.12
2019-03-10T15:02:06.062Z,64.75
2019-03-10T15:04:35.800Z,64.97
2019-03-10T15:07:05.632Z,65.45
2019-03-10T15:09:35.335Z,65.41
2019-03-10T15:12:05.216Z,65.01
2019-03-10T15:14:34.947Z,65.17
2019-03-10T15:17:04.680Z,65.28
2019-03-10T15:19:34.399Z,65.26
2019-03-10T15:22:04.479Z,64.97
2019-03-10T15:24:34.154Z,65.04
2019-03-10T15:27:03.781Z,64.92
2019-03-10T15:32:02.134Z,65.01
2019-03-10T15:34:31.823Z,65.55
2019-03-10T15:37:01.560Z,65.63
2019-03-10T15:39:31.299Z,66.22
2019-03-10T15:42:00.975Z,66.21
2019-03-10T15:44:30.749Z,66.81
2019-03-10T15:47:00.462Z,67.32
2019-03-10T15:49:30.192Z,67.63
2019-03-10T15:51:59.859Z,68.39
2019-03-10T15:54:29.595Z,68.76
2019-03-10T15:56:59.435Z,68.96
2019-03-10T15:59:29.110Z,69.36
2019-03-10T16:01:58.809Z,69.91
2019-03-10T16:04:28.570Z,70.73
2019-03-10T16:06:59.237Z,71.49
2019-03-10T16:09:28.947Z,72.48
2019-03-10T16:11:58.793Z,73.70
2019-03-10T16:14:28.443Z,73.81
2019-03-10T16:16:58.144Z,73.32
2019-03-10T16:19:27.843Z,72.99
2019-03-10T16:21:57.612Z,73.16
2019-03-10T16:24:27.315Z,73.70
2019-03-10T16:26:57.064Z,73.99
2019-03-10T16:29:26.735Z,73.69
2019-03-10T16:31:56.508Z,73.59
2019-03-10T16:34:26.175Z,73.95
2019-03-10T16:36:55.901Z,73.42
2019-03-10T16:39:25.732Z,72.83
2019-03-10T16:41:55.439Z,72.29
2019-03-10T16:44:25.199Z,71.98
2019-03-10T16:46:54.912Z,71.66
2019-03-10T16:49:24.634Z,72.02
2019-03-10T16:51:54.400Z,72.49
2019-03-10T16:54:24.153Z,72.37
2019-03-10T16:56:53.903Z,72.39
2019-03-10T16:59:23.630Z,72.72
2019-03-10T17:01:53.415Z,74.43
2019-03-10T17:04:23.044Z,73.08
2019-03-10T17:06:52.755Z,73.01
2019-03-10T17:09:22.615Z,73.56
2019-03-10T17:11:52.547Z,76.40
2019-03-10T17:14:22.682Z,74.52
2019-03-10T17:16:52.679Z,75.14
2019-03-10T17:19:22.323Z,75.13
2019-03-10T17:21:52.096Z,76.17
2019-03-10T17:24:21.834Z,76.58
2019-03-10T17:26:51.515Z,77.07
2019-03-10T17:29:21.500Z,77.36
2019-03-10T17:31:51.189Z,77.49
2019-03-10T17:34:20.870Z,77.82
2019-03-10T17:36:50.580Z,78.36
2019-03-10T17:39:20.259Z,80.23
2019-03-10T17:41:50.188Z,79.73
2019-03-10T17:44:19.965Z,81.78
2019-03-10T17:46:49.727Z,81.43
2019-03-10T17:49:19.415Z,79.96
2019-03-10T17:51:49.142Z,79.37
2019-03-10T17:54:19.088Z,78.77
2019-03-10T17:56:48.753Z,78.18
2019-03-10T17:59:18.535Z,78.52
2019-03-10T18:01:48.350Z,78.50
2019-03-10T18:04:18.099Z,78.23
2019-03-10T18:06:47.775Z,82.47
2019-03-10T18:09:17.509Z,83.13
2019-03-10T18:11:47.223Z,77.42
2019-03-10T18:14:16.991Z,76.08
2019-03-10T18:16:46.781Z,75.80
2019-03-10T18:19:16.541Z,76.72
2019-03-10T18:21:46.621Z,75.95
2019-03-10T18:24:16.529Z,76.61
2019-03-10T18:26:46.225Z,76.27
2019-03-10T18:29:16.012Z,76.26
2019-03-10T18:31:45.757Z,76.71
2019-03-10T18:34:15.436Z,78.81
2019-03-10T18:36:45.165Z,79.09
2019-03-10T18:39:14.826Z,78.27
2019-03-10T18:41:44.552Z,78.33
2019-03-10T18:44:14.207Z,76.88
2019-03-10T18:46:43.873Z,75.47
2019-03-10T18:49:13.611Z,75.58
2019-03-10T18:51:43.333Z,74.64
2019-03-10T18:54:13.274Z,75.21
2019-03-10T18:56:43.028Z,75.03
2019-03-10T18:59:12.761Z,75.07
2019-03-10T19:01:42.395Z,74.76
2019-03-10T19:04:12.214Z,75.08
2019-03-10T19:06:41.962Z,74.31
2019-03-10T19:09:11.827Z,74.45
2019-03-10T19:11:41.604Z,74.71
2019-03-10T19:14:11.264Z,74.48
2019-03-10T19:16:41.004Z,74.38
2019-03-10T19:19:11.045Z,74.48
2019-03-10T19:21:40.860Z,73.68
2019-03-10T19:24:10.548Z,73.88
2019-03-10T19:26:40.229Z,74.15
2019-03-10T19:29:09.953Z,74.40
2019-03-10T19:31:39.660Z,74.57
2019-03-10T19:34:09.336Z,74.00
2019-03-10T19:36:39.161Z,73.16
2019-03-10T19:39:08.947Z,73.04
2019-03-10T19:41:38.720Z,73.25
2019-03-10T19:44:08.493Z,73.06
2019-03-10T19:46:38.248Z,73.17
2019-03-10T19:49:07.895Z,73.40
2019-03-10T19:51:37.670Z,73.00
2019-03-10T19:54:07.319Z,72.84
2019-03-10T19:56:37.002Z,73.35
2019-03-10T19:59:06.796Z,73.15
2019-03-10T20:01:36.506Z,74.06
2019-03-10T20:04:06.222Z,75.08
2019-03-10T20:06:35.904Z,76.02
2019-03-10T20:09:07.459Z,77.13
2019-03-10T20:11:37.247Z,77.97
2019-03-10T20:14:07.372Z,78.83
2019-03-10T20:16:37.051Z,79.43
2019-03-10T20:19:06.763Z,79.91
2019-03-10T20:21:36.494Z,79.67
2019-03-10T20:24:06.496Z,79.53
2019-03-10T20:26:36.166Z,79.99
2019-03-10T20:29:06.083Z,79.45
2019-03-10T20:31:35.827Z,79.62
2019-03-10T20:34:05.761Z,79.31
2019-03-10T20:36:35.715Z,79.48
2019-03-10T20:39:07.381Z,79.69
2019-03-10T20:41:37.050Z,79.61
2019-03-10T20:44:06.724Z,79.40
2019-03-10T20:46:36.437Z,79.40
2019-03-10T20:49:06.178Z,79.80
2019-03-10T20:51:35.887Z,79.95
2019-03-10T20:54:05.672Z,79.98
2019-03-10T20:56:35.368Z,79.94
2019-03-10T20:59:05.168Z,80.23
2019-03-10T21:01:34.839Z,80.01
2019-03-10T21:04:04.596Z,80.03
2019-03-10T21:06:34.276Z,80.48
2019-03-10T21:09:04.785Z,80.64
2019-03-10T21:11:34.704Z,80.35
2019-03-10T21:14:04.619Z,80.55
2019-03-10T21:16:34.321Z,80.41
2019-03-10T21:19:04.020Z,80.56
2019-03-10T21:21:33.802Z,80.53
2019-03-10T21:24:03.463Z,80.43
2019-03-10T21:26:34.659Z,80.61
2019-03-10T21:29:04.485Z,80.56
2019-03-10T21:31:34.220Z,80.53
2019-03-10T21:34:03.949Z,80.43
2019-03-10T21:36:33.697Z,80.27
2019-03-10T21:39:04.724Z,80.13
2019-03-10T21:41:35.614Z,80.27
2019-03-10T21:44:05.518Z,80.42
2019-03-10T21:46:35.386Z,79.97
2019-03-10T21:49:05.114Z,80.08
2019-03-10T21:51:34.922Z,79.75
2019-03-10T21:54:04.630Z,79.67
2019-03-10T21:56:34.402Z,79.57
2019-03-10T21:59:04.086Z,79.22
2019-03-10T22:01:33.834Z,79.50
2019-03-10T22:04:03.589Z,79.42
2019-03-10T22:06:33.389Z,79.07
2019-03-10T22:09:04.945Z,78.11
2019-03-10T22:11:36.158Z,78.15
2019-03-10T22:14:06.563Z,78.52
2019-03-10T22:16:36.287Z,77.94
2019-03-10T22:19:05.986Z,78.39
2019-03-10T22:21:35.713Z,78.22
2019-03-10T22:24:05.498Z,78.08
2019-03-10T22:26:35.225Z,78.45
2019-03-10T22:29:04.953Z,78.33
2019-03-10T22:31:34.737Z,78.22
2019-03-10T22:34:04.547Z,78.15
2019-03-10T22:36:34.387Z,78.46
2019-03-10T22:39:04.876Z,78.54
2019-03-10T22:41:34.565Z,78.83
2019-03-10T22:44:04.289Z,79.00
2019-03-10T22:46:34.154Z,78.98
2019-03-10T22:49:03.836Z,78.76
2019-03-10T22:51:33.579Z,78.05
2019-03-10T22:54:03.306Z,78.09
2019-03-10T22:56:33.017Z,78.37
2019-03-10T22:59:02.745Z,77.68
2019-03-10T23:01:32.560Z,77.58
2019-03-10T23:04:02.402Z,77.64
2019-03-10T23:06:32.181Z,77.28
2019-03-10T23:09:02.007Z,77.85
2019-03-10T23:11:31.712Z,76.43
2019-03-10T23:14:01.673Z,75.85
2019-03-10T23:16:31.380Z,75.73
2019-03-10T23:19:01.131Z,75.71
2019-03-10T23:21:30.847Z,75.74
2019-03-10T23:24:00.657Z,75.41
2019-03-10T23:26:30.411Z,76.16
2019-03-10T23:29:00.114Z,75.21
2019-03-10T23:31:29.770Z,75.04
2019-03-10T23:33:59.603Z,75.37
2019-03-10T23:36:29.452Z,75.45
2019-03-10T23:38:59.311Z,76.28
2019-03-10T23:41:29.277Z,76.66
2019-03-10T23:43:58.976Z,76.34
2019-03-10T23:46:28.705Z,76.49
2019-03-10T23:48:58.374Z,76.58
2019-03-10T23:51:28.035Z,76.55
2019-03-10T23:53:57.775Z,76.36
2019-03-10T23:56:27.499Z,76.60
2019-03-10T23:58:57.352Z,76.59
